SBOSBO OPO / LPPR
Speedbird OnlineSpeedbird Online OPO / LPPR

Francisco de Sá Carneiro Airport
00:42 8.2°C

Location Porto, Portugal
Latitude: 41.2481002808
Longitude: -8.68138980865
Local Time 00:42 on 28 Feb 2024
UTC 0 hours (Europe/Lisbon)
Currency £1 equals EUR 1.17
METAR LPPR 280000Z 35007KT CAVOK 08/04 Q1028
TAF TAF LPPR 272300Z 2800/2824 35010KT CAVOK BECMG 2802/2804 03005KT BECMG 2811/2813 33012KT 9999 SCT030 BECMG 2819/2821 36007KT SCT012
Weather As Of 28 Feb 2024 00:42
Description Clear sky
Wind 13 km/h from North (350°)
Cloud Cover 0%
Precipitation Rain: none, Snow: none
Sunrise 07:11
Sunset 18:23
NOTAM 16 active NOTAM
Rotations During the last 90 days there were
55 flights from LGW
1 flights from SVQ
55 flights to LGW
Lounges ANA Lounge, International
Web Airport Website | Wikipedia
Codes IATA: OPO
ICAO: LPPR
Altitude 69 Meter / 228 Feet
Distance 1,324 KM / 823 Miles
from London.
Runways
RunwayLength (m)Surface
173480Asphalt
353480Asphalt
Radio
TypeDescriptionFrequency
APPPorto Approach121.105
ATISATIS124.305
CLR DLVRPorto Delivery118.93
TWRPorto Tower118.005
Live ATC



Support Speedbird Online

© 2017-2024 Speedbird Online